Auvergne, Arkansas
Current Conditions -  °F | °C
As of 1:56 AM on Thursday 23 Oct 2014 (Local Time) from KM19 Reporting Station
Clear Clear  
Wind Chill: 41°   Ceiling: Unl
Heat Index: 44°   Visibility: 10mi
Dew Point: 43°   Wind: 5mph
Humidity: 97%   Direction: 30°NNE
Pressure: 30.2"   Gusts: NA
Location:  35.5678°N, 91.2073°W
Report Text: KM19 230656Z AUTO 03004KT 10SM CLR 07/06 A3020 RMK AO2 T00660061 SLP226
Loading
Personal Weather Stations






























Interactive Weather Map
Tropical Storm Tracking
New forecast layout! Learn more

10-Day Weather Forecast

Advertisements
Track Severe Weather on mobile